Time;durP1;ratioP1;P1;durP2;ratioP2;P2;SDS_P1;SDS_P2;PMS_P1;PMS_P2;Temp;Humidity;BMP_temperature;BMP_pressure;BME280_temperature;BME280_humidity;BME280_pressure;Samples;Min_cycle;Max_cycle;Signal;HPM_P1;HPM_P2
2021/07/10 00:00:59;;;;;;;20.38;14.43;;;14.60;99.90;;;;;;5070613;28;20049;-81
2021/07/10 00:03:26;;;;;;;21.00;14.68;;;14.60;99.90;;;;;;5054343;28;20128;-80
2021/07/10 00:05:53;;;;;;;21.00;15.45;;;14.50;99.90;;;;;;5054250;28;20542;-80
2021/07/10 00:08:19;;;;;;;23.30;15.10;;;14.50;99.90;;;;;;5043758;28;20045;-80
2021/07/10 00:10:46;;;;;;;22.60;15.15;;;14.50;99.90;;;;;;5033823;28;20080;-80
2021/07/10 00:13:13;;;;;;;22.83;15.88;;;14.50;99.90;;;;;;5033418;28;20041;-80
2021/07/10 00:15:40;;;;;;;22.88;16.33;;;14.60;99.90;;;;;;5017286;28;20084;-80
2021/07/10 00:18:07;;;;;;;27.15;16.88;;;14.60;99.90;;;;;;5049997;28;20041;-79
2021/07/10 00:20:34;;;;;;;24.23;16.60;;;14.70;99.90;;;;;;5032872;28;20092;-80
2021/07/10 00:23:01;;;;;;;23.55;17.13;;;14.70;99.90;;;;;;5030337;28;20038;-81
2021/07/10 00:25:29;;;;;;;27.38;17.80;;;14.70;99.90;;;;;;5030887;28;20560;-80
2021/07/10 00:27:56;;;;;;;24.60;17.55;;;14.70;99.90;;;;;;5014330;28;20041;-80
2021/07/10 00:30:24;;;;;;;25.15;17.08;;;14.60;99.90;;;;;;5030684;28;20406;-80
2021/07/10 00:32:51;;;;;;;25.40;18.15;;;14.60;99.90;;;;;;5030491;28;20096;-80
2021/07/10 00:35:20;;;;;;;24.65;16.95;;;14.50;99.90;;;;;;5014512;28;20132;-80
2021/07/10 00:37:47;;;;;;;26.65;17.15;;;14.50;99.90;;;;;;5014219;28;20046;-80
2021/07/10 00:40:14;;;;;;;26.17;16.98;;;14.50;99.90;;;;;;5030353;28;20045;-80
2021/07/10 00:42:42;;;;;;;23.85;17.17;;;14.40;99.90;;;;;;5029980;28;20540;-80
2021/07/10 00:45:11;;;;;;;29.63;18.77;;;14.40;99.90;;;;;;5014141;28;20112;-80
2021/07/10 00:47:39;;;;;;;23.92;17.40;;;14.40;99.90;;;;;;5047433;28;20520;-80
2021/07/10 00:50:08;;;;;;;29.98;18.95;;;14.30;99.90;;;;;;5014165;28;20077;-80
2021/07/10 00:52:35;;;;;;;25.65;17.65;;;14.30;99.90;;;;;;5029872;28;20045;-80
2021/07/10 00:55:03;;;;;;;28.60;18.88;;;14.30;99.90;;;;;;5030253;28;20041;-80
2021/07/10 00:57:32;;;;;;;25.92;18.27;;;14.20;99.90;;;;;;5046772;28;20062;-80
2021/07/10 00:59:59;;;;;;;27.02;18.38;;;14.20;99.90;;;;;;5013432;28;20053;-80
2021/07/10 01:02:26;;;;;;;29.23;18.05;;;14.20;99.90;;;;;;5030127;28;20426;-80
2021/07/10 01:04:52;;;;;;;27.80;18.88;;;14.20;99.90;;;;;;5013851;28;20084;-80
2021/07/10 01:07:19;;;;;;;28.30;19.08;;;14.20;99.90;;;;;;5013781;28;20077;-80
2021/07/10 01:09:46;;;;;;;25.90;18.92;;;14.20;99.90;;;;;;5029799;28;20038;-80
2021/07/10 01:12:13;;;;;;;28.08;19.05;;;14.20;99.90;;;;;;5013930;28;20050;-80
2021/07/10 01:14:40;;;;;;;27.98;19.90;;;14.20;99.90;;;;;;5029774;28;20124;-81
2021/07/10 01:17:08;;;;;;;32.65;18.70;;;14.20;99.90;;;;;;5013806;28;20483;-80
2021/07/10 01:19:35;;;;;;;31.15;19.35;;;14.10;99.90;;;;;;5030155;28;20438;-80
2021/07/10 01:22:07;;;;;;;26.63;18.40;;;14.10;99.90;;;;;;5046435;28;20042;-80
2021/07/10 01:24:34;;;;;;;27.48;18.88;;;14.10;99.90;;;;;;5030690;28;20038;-80
2021/07/10 01:27:00;;;;;;;27.63;19.20;;;14.10;99.90;;;;;;5045833;28;20049;-80
2021/07/10 01:29:28;;;;;;;27.42;18.95;;;14.10;99.90;;;;;;5013814;28;20395;-80
2021/07/10 01:31:58;;;;;;;30.13;19.73;;;14.10;99.90;;;;;;5045664;28;20188;-80
2021/07/10 01:34:25;;;;;;;28.55;19.75;;;14.10;99.90;;;;;;5029712;28;20057;-80
2021/07/10 01:36:52;;;;;;;28.75;19.23;;;14.10;99.90;;;;;;5013514;28;20498;-79
2021/07/10 01:39:19;;;;;;;32.53;20.67;;;14.20;99.90;;;;;;5013589;28;20129;-80
2021/07/10 01:41:48;;;;;;;27.23;19.10;;;14.20;99.90;;;;;;5029544;28;20046;-80
2021/07/10 01:44:15;;;;;;;29.67;20.48;;;14.20;99.90;;;;;;5029964;28;20121;-80
2021/07/10 01:46:42;;;;;;;27.60;18.75;;;14.20;99.90;;;;;;5046753;28;20117;-81
2021/07/10 01:49:09;;;;;;;27.23;19.42;;;14.20;99.90;;;;;;5029749;28;20075;-80
2021/07/10 01:51:36;;;;;;;26.48;18.38;;;14.20;99.90;;;;;;5029775;28;20046;-80
2021/07/10 01:54:03;;;;;;;23.15;17.25;;;14.20;99.90;;;;;;5013007;28;20121;-80
2021/07/10 01:56:30;;;;;;;27.63;18.58;;;14.10;99.90;;;;;;5046010;28;20108;-80
2021/07/10 01:58:56;;;;;;;28.25;18.30;;;14.10;99.90;;;;;;5029131;28;20073;-80
2021/07/10 02:01:23;;;;;;;26.42;18.25;;;14.10;99.90;;;;;;5013411;28;20057;-80
2021/07/10 02:03:50;;;;;;;29.65;18.80;;;14.00;99.90;;;;;;5046732;28;20125;-80
2021/07/10 02:06:17;;;;;;;28.92;18.95;;;14.10;99.90;;;;;;5029532;28;20045;-80
2021/07/10 02:08:44;;;;;;;24.35;17.48;;;14.00;99.90;;;;;;5030484;28;20069;-80
2021/07/10 02:11:11;;;;;;;28.25;19.20;;;14.00;99.90;;;;;;5033020;28;20442;-80
2021/07/10 02:13:38;;;;;;;25.83;17.92;;;13.90;99.90;;;;;;5033072;28;20053;-80
2021/07/10 02:16:07;;;;;;;27.33;18.52;;;13.90;99.90;;;;;;5016428;28;20042;-80
2021/07/10 02:18:33;;;;;;;27.75;18.33;;;13.80;99.90;;;;;;5032920;28;20446;-80
2021/07/10 02:21:01;;;;;;;25.88;17.92;;;13.70;99.90;;;;;;5016465;28;20053;-80
2021/07/10 02:23:28;;;;;;;28.52;17.05;;;13.80;99.90;;;;;;5016745;28;20042;-80
2021/07/10 02:25:55;;;;;;;26.00;17.83;;;13.70;99.90;;;;;;5016475;28;20045;-80
2021/07/10 02:28:22;;;;;;;25.92;17.75;;;13.70;99.90;;;;;;5016575;28;20037;-80
2021/07/10 02:30:49;;;;;;;24.85;17.52;;;13.70;99.90;;;;;;5016303;28;20054;-79
2021/07/10 02:33:16;;;;;;;23.45;17.02;;;13.60;99.90;;;;;;5032633;28;20510;-80
2021/07/10 02:35:44;;;;;;;26.20;18.10;;;13.70;99.90;;;;;;5032741;28;20050;-79
2021/07/10 02:38:12;;;;;;;23.90;16.75;;;13.70;99.90;;;;;;5016643;28;20414;-79
2021/07/10 02:40:39;;;;;;;27.13;18.60;;;13.60;99.90;;;;;;5032745;28;20044;-80
2021/07/10 02:43:06;;;;;;;32.03;18.05;;;13.60;99.90;;;;;;5032341;28;20049;-80
2021/07/10 02:45:35;;;;;;;26.85;18.45;;;13.50;99.90;;;;;;5032496;28;20046;-80
2021/07/10 02:48:02;;;;;;;26.00;17.13;;;13.50;99.90;;;;;;5032051;28;20052;-79
2021/07/10 02:50:29;;;;;;;24.60;17.13;;;13.50;99.90;;;;;;5016355;28;20042;-80
2021/07/10 02:52:56;;;;;;;29.10;18.35;;;13.40;99.90;;;;;;5032089;28;20454;-80
2021/07/10 02:55:24;;;;;;;28.20;17.60;;;13.40;99.90;;;;;;5032408;28;20073;-80
2021/07/10 02:57:52;;;;;;;31.15;18.08;;;13.40;99.90;;;;;;5031875;28;20046;-80
2021/07/10 03:00:22;;;;;;;29.35;17.83;;;13.40;99.90;;;;;;5012609;28;20408;-80
2021/07/10 03:02:49;;;;;;;25.80;17.63;;;13.40;99.90;;;;;;5012313;28;20050;-80
2021/07/10 03:05:16;;;;;;;27.30;18.40;;;13.30;99.90;;;;;;4996430;28;20046;-80
2021/07/10 03:07:44;;;;;;;26.75;18.13;;;13.30;99.90;;;;;;5012362;28;20050;-80
2021/07/10 03:10:17;;;;;;;29.25;18.27;;;13.30;99.90;;;;;;5012047;28;20042;-79
2021/07/10 03:12:44;;;;;;;26.92;17.90;;;13.30;99.90;;;;;;5028464;28;20045;-80
2021/07/10 03:15:15;;;;;;;28.45;17.75;;;13.30;99.90;;;;;;4995792;28;20050;-80
2021/07/10 03:17:46;;;;;;;26.38;17.05;;;13.40;99.90;;;;;;5012707;28;20058;-80
2021/07/10 03:20:13;;;;;;;29.33;17.88;;;13.40;99.90;;;;;;4995096;28;20181;-79
2021/07/10 03:22:40;;;;;;;29.63;18.67;;;13.40;99.90;;;;;;5011913;28;20057;-79
2021/07/10 03:25:09;;;;;;;25.77;17.00;;;13.40;99.90;;;;;;5011062;28;20046;-80
2021/07/10 03:27:36;;;;;;;29.60;19.13;;;13.40;99.90;;;;;;5011425;28;20046;-79
2021/07/10 03:30:05;;;;;;;29.35;18.45;;;13.40;99.90;;;;;;5011767;28;20065;-80
2021/07/10 03:32:32;;;;;;;28.08;17.90;;;13.30;99.90;;;;;;5012235;28;20077;-80
2021/07/10 03:34:59;;;;;;;27.50;18.13;;;13.40;99.90;;;;;;5027752;28;20050;-80
2021/07/10 03:37:26;;;;;;;26.60;18.60;;;13.40;99.90;;;;;;5011751;28;20104;-80
2021/07/10 03:39:53;;;;;;;30.83;18.58;;;13.50;99.90;;;;;;5011746;28;20050;-80
2021/07/10 03:42:20;;;;;;;28.45;18.75;;;13.40;99.90;;;;;;5011693;28;20042;-80
2021/07/10 03:44:47;;;;;;;28.88;19.17;;;13.40;99.90;;;;;;4995822;28;20050;-80
2021/07/10 03:47:15;;;;;;;33.70;20.98;;;13.50;99.90;;;;;;5011451;28;20506;-80
2021/07/10 03:49:44;;;;;;;35.60;20.83;;;13.60;99.90;;;;;;4980284;28;20117;-80
2021/07/10 03:52:11;;;;;;;34.65;21.40;;;13.70;99.90;;;;;;5011267;28;20042;-80
2021/07/10 03:54:37;;;;;;;37.45;22.80;;;13.70;99.90;;;;;;5011447;28;20042;-80
2021/07/10 03:57:04;;;;;;;41.50;23.10;;;13.70;99.90;;;;;;5011106;28;20611;-80
2021/07/10 03:59:31;;;;;;;36.80;22.65;;;13.80;99.90;;;;;;5014665;28;20057;-80
2021/07/10 04:01:58;;;;;;;32.58;21.08;;;13.80;99.90;;;;;;5046935;28;20548;-80
2021/07/10 04:04:25;;;;;;;36.38;22.55;;;13.90;99.90;;;;;;5014802;28;20045;-80
2021/07/10 04:06:53;;;;;;;36.63;22.48;;;13.90;99.90;;;;;;5030890;28;20042;-80
2021/07/10 04:09:19;;;;;;;41.67;23.92;;;13.90;99.90;;;;;;5014676;28;20053;-80
2021/07/10 04:11:46;;;;;;;42.95;24.05;;;13.90;99.90;;;;;;5014727;28;20058;-80
2021/07/10 04:14:13;;;;;;;36.00;22.02;;;13.90;99.90;;;;;;5014397;28;20078;-80
2021/07/10 04:16:40;;;;;;;33.97;21.38;;;13.90;99.90;;;;;;5030769;28;20049;-80
2021/07/10 04:19:07;;;;;;;35.75;21.08;;;13.80;99.90;;;;;;5014438;28;20057;-80
2021/07/10 04:21:34;;;;;;;36.58;21.30;;;13.80;99.90;;;;;;5014371;28;20046;-79
2021/07/10 04:24:01;;;;;;;35.63;20.77;;;13.70;99.90;;;;;;5046617;28;20077;-80
2021/07/10 04:26:32;;;;;;;38.38;21.88;;;13.70;99.90;;;;;;5015230;28;20390;-80
2021/07/10 04:28:58;;;;;;;38.67;21.75;;;13.70;99.90;;;;;;5030116;28;20129;-81
2021/07/10 04:31:25;;;;;;;37.33;21.85;;;13.70;99.90;;;;;;5014075;28;20082;-80
2021/07/10 04:33:52;;;;;;;38.40;22.67;;;13.70;99.90;;;;;;5047918;28;20042;-80
2021/07/10 04:36:19;;;;;;;40.17;22.23;;;13.70;99.90;;;;;;5030112;28;20096;-80
2021/07/10 04:38:46;;;;;;;40.28;22.38;;;13.70;99.90;;;;;;5014141;28;20100;-80
2021/07/10 04:41:13;;;;;;;42.58;23.40;;;13.70;99.90;;;;;;5030118;28;20054;-80
2021/07/10 04:43:40;;;;;;;40.65;23.10;;;13.80;99.90;;;;;;5030347;28;20398;-80
2021/07/10 04:46:09;;;;;;;39.58;23.60;;;13.80;99.90;;;;;;5013707;28;20056;-80
2021/07/10 04:48:35;;;;;;;49.08;24.17;;;13.80;99.90;;;;;;5046547;28;20050;-80
2021/07/10 04:51:02;;;;;;;48.55;25.23;;;13.80;99.90;;;;;;5046212;28;20050;-80
2021/07/10 04:53:29;;;;;;;45.63;25.13;;;13.90;99.90;;;;;;5029804;28;20109;-80
2021/07/10 04:55:56;;;;;;;49.65;26.88;;;14.00;99.90;;;;;;5014020;28;20452;-80
2021/07/10 04:58:23;;;;;;;54.20;27.52;;;14.20;99.90;;;;;;5029964;28;20129;-80
2021/07/10 05:00:50;;;;;;;51.03;27.55;;;14.30;99.90;;;;;;5030013;28;20058;-80
2021/07/10 05:03:16;;;;;;;51.45;27.92;;;14.30;99.90;;;;;;5029798;28;20479;-80
2021/07/10 05:05:43;;;;;;;55.63;27.85;;;14.40;99.90;;;;;;5046442;28;20046;-79
2021/07/10 05:08:10;;;;;;;53.88;27.52;;;14.50;99.90;;;;;;5029532;28;20049;-80
2021/07/10 05:10:37;;;;;;;54.75;28.08;;;14.50;99.90;;;;;;5030051;28;20040;-80
2021/07/10 05:13:04;;;;;;;56.30;29.23;;;14.60;99.90;;;;;;5029750;28;20041;-80
2021/07/10 05:15:31;;;;;;;55.50;29.38;;;14.70;99.90;;;;;;5046358;28;20042;-80
2021/07/10 05:18:00;;;;;;;60.83;28.40;;;14.70;99.90;;;;;;5046226;28;20050;-79
2021/07/10 05:20:27;;;;;;;52.30;27.10;;;14.70;99.90;;;;;;5013474;28;20038;-79
2021/07/10 05:22:53;;;;;;;49.88;28.00;;;14.80;99.90;;;;;;5029957;28;20479;-79
2021/07/10 05:25:20;;;;;;;57.33;29.27;;;14.90;99.90;;;;;;5045929;28;20050;-80
2021/07/10 05:27:47;;;;;;;59.65;29.13;;;14.90;99.90;;;;;;5013674;28;20123;-79
2021/07/10 05:30:17;;;;;;;54.17;29.27;;;14.90;99.90;;;;;;5030113;28;20104;-80
2021/07/10 05:32:44;;;;;;;51.00;28.40;;;15.00;99.90;;;;;;5046181;28;20038;-80
2021/07/10 05:35:13;;;;;;;55.42;29.33;;;15.00;99.90;;;;;;5029620;28;20069;-80
2021/07/10 05:37:40;;;;;;;51.53;28.15;;;15.10;99.90;;;;;;5029914;28;20162;-80
2021/07/10 05:40:07;;;;;;;44.30;27.00;;;15.20;99.90;;;;;;5045869;28;20042;-80
2021/07/10 05:42:35;;;;;;;54.60;29.45;;;15.20;99.90;;;;;;5029829;28;20050;-80
2021/07/10 05:45:06;;;;;;;51.40;28.33;;;15.30;99.90;;;;;;5017757;28;20042;-80
2021/07/10 05:47:33;;;;;;;49.45;27.88;;;15.30;99.90;;;;;;5033430;28;20048;-80
2021/07/10 05:50:00;;;;;;;52.95;26.45;;;15.40;99.90;;;;;;5033392;28;20610;-80
2021/07/10 05:52:27;;;;;;;45.33;26.13;;;15.40;99.90;;;;;;5033170;28;20112;-80
2021/07/10 05:54:55;;;;;;;46.60;26.35;;;15.50;99.90;;;;;;5033516;28;20053;-80
2021/07/10 05:57:21;;;;;;;46.65;26.02;;;15.60;99.90;;;;;;5016842;28;20053;-80
2021/07/10 05:59:48;;;;;;;47.53;26.08;;;15.60;99.90;;;;;;5033102;28;20210;-80
2021/07/10 06:02:15;;;;;;;49.55;26.38;;;15.70;99.90;;;;;;5032906;28;20045;-80
2021/07/10 06:04:42;;;;;;;47.92;27.17;;;15.70;99.90;;;;;;5017006;28;20046;-81
2021/07/10 06:07:09;;;;;;;51.55;27.98;;;15.70;99.90;;;;;;5049191;28;20057;-81
2021/07/10 06:09:36;;;;;;;62.47;31.45;;;15.80;99.90;;;;;;5016827;28;20129;-80
2021/07/10 06:12:03;;;;;;;69.30;37.20;;;15.80;99.90;;;;;;5016914;28;20454;-80
2021/07/10 06:14:31;;;;;;;70.10;37.15;;;15.90;99.90;;;;;;5050118;28;20049;-80
2021/07/10 06:17:00;;;;;;;44.05;26.95;;;16.00;99.90;;;;;;5049302;28;20057;-80
2021/07/10 06:19:27;;;;;;;41.13;25.70;;;16.00;99.90;;;;;;5032623;28;20042;-80
2021/07/10 06:21:54;;;;;;;41.00;24.77;;;16.10;99.90;;;;;;5016808;28;20065;-88
2021/07/10 06:24:21;;;;;;;43.88;27.30;;;16.20;99.90;;;;;;5016689;28;20045;-82
2021/07/10 06:26:47;;;;;;;40.40;23.20;;;16.30;99.90;;;;;;5016594;28;20517;-80
2021/07/10 06:29:14;;;;;;;36.22;22.92;;;16.30;99.90;;;;;;5032319;28;20053;-80
2021/07/10 06:31:47;;;;;;;29.52;21.65;;;16.40;99.90;;;;;;5032924;28;20050;-84
2021/07/10 06:34:14;;;;;;;34.65;22.67;;;16.50;99.90;;;;;;5032485;28;20049;-83
2021/07/10 06:36:41;;;;;;;31.92;21.20;;;16.60;99.90;;;;;;5033932;28;20165;-84
2021/07/10 06:39:08;;;;;;;34.70;22.20;;;16.70;99.90;;;;;;5016419;28;20053;-82
2021/07/10 06:41:37;;;;;;;33.53;22.63;;;16.80;99.90;;;;;;5045940;28;20038;-84
2021/07/10 06:44:06;;;;;;;35.42;22.42;;;16.90;99.90;;;;;;5052441;28;20056;-81
2021/07/10 06:46:33;;;;;;;32.75;22.42;;;17.00;99.90;;;;;;5051971;28;20051;-84
2021/07/10 06:49:00;;;;;;;32.53;21.77;;;17.10;99.90;;;;;;5038565;28;20425;-76
2021/07/10 06:51:27;;;;;;;33.72;21.27;;;17.20;99.90;;;;;;5035373;28;20423;-77
2021/07/10 06:53:54;;;;;;;25.67;16.35;;;17.40;99.90;;;;;;5034945;28;20096;-76
2021/07/10 06:56:21;;;;;;;17.95;12.30;;;17.70;99.90;;;;;;5030748;28;20128;-75
2021/07/10 06:58:47;;;;;;;25.88;16.70;;;17.70;99.90;;;;;;5049069;28;20100;-75
2021/07/10 07:01:14;;;;;;;20.05;13.40;;;17.90;99.90;;;;;;5068121;28;20175;-77
2021/07/10 07:03:41;;;;;;;20.58;14.60;;;18.00;99.90;;;;;;5066674;28;20466;-79
2021/07/10 07:06:08;;;;;;;11.30;8.85;;;18.20;99.90;;;;;;5051330;28;20045;-78
2021/07/10 07:08:34;;;;;;;13.65;10.07;;;18.30;99.90;;;;;;5068717;28;20041;-78
2021/07/10 07:11:01;;;;;;;18.25;12.82;;;18.40;99.90;;;;;;5068915;28;20046;-78
2021/07/10 07:13:34;;;;;;;18.42;13.30;;;18.30;99.90;;;;;;5051295;28;20049;-84
2021/07/10 07:16:01;;;;;;;20.02;13.27;;;18.20;99.90;;;;;;5035547;28;20504;-82
2021/07/10 07:18:28;;;;;;;17.00;12.40;;;18.20;99.90;;;;;;5035456;28;20049;-83
2021/07/10 07:20:54;;;;;;;16.85;11.95;;;18.20;99.90;;;;;;5035722;28;20051;-75
2021/07/10 07:23:23;;;;;;;15.32;11.10;;;18.10;99.90;;;;;;5068754;28;20042;-80
2021/07/10 07:25:50;;;;;;;12.98;9.95;;;18.20;99.90;;;;;;5035091;28;20441;-81
2021/07/10 07:28:16;;;;;;;13.32;10.23;;;18.20;99.90;;;;;;5035209;28;20045;-81
2021/07/10 07:30:43;;;;;;;12.98;10.13;;;18.30;99.90;;;;;;5034892;28;20061;-80
2021/07/10 07:33:11;;;;;;;14.63;10.57;;;18.40;99.90;;;;;;5055897;28;20041;-80
2021/07/10 07:35:37;;;;;;;13.60;9.45;;;18.50;99.90;;;;;;5070992;28;20047;-80
2021/07/10 07:38:04;;;;;;;13.60;9.52;;;18.60;99.90;;;;;;5068092;28;20057;-83
2021/07/10 07:40:31;;;;;;;13.95;9.60;;;18.60;99.90;;;;;;5071381;28;20075;-81
2021/07/10 07:42:58;;;;;;;15.38;9.88;;;18.70;99.90;;;;;;5071391;28;20045;-82
2021/07/10 07:45:26;;;;;;;12.07;9.18;;;18.70;99.90;;;;;;5071233;28;20052;-82
2021/07/10 07:47:53;;;;;;;14.05;10.00;;;18.70;99.90;;;;;;5054863;28;20053;-85
2021/07/10 07:50:20;;;;;;;11.00;8.30;;;18.70;99.90;;;;;;5068221;28;20102;-85
2021/07/10 07:52:48;;;;;;;12.55;8.98;;;18.70;99.90;;;;;;5051646;28;20081;-87
2021/07/10 07:55:15;;;;;;;12.93;8.90;;;18.70;99.90;;;;;;5061807;28;20125;-82
2021/07/10 07:57:43;;;;;;;11.32;8.65;;;18.60;99.90;;;;;;5034958;28;20533;-83
2021/07/10 08:00:19;;;;;;;11.38;8.07;;;18.60;99.90;;;;;;5069057;28;20045;-84
2021/07/10 08:02:47;;;;;;;10.93;7.97;;;18.60;99.90;;;;;;5068351;28;20041;-84
2021/07/10 08:05:15;;;;;;;10.82;7.78;;;18.80;99.90;;;;;;5052353;28;20100;-87
2021/07/10 08:07:42;;;;;;;12.18;8.05;;;18.90;99.90;;;;;;5050376;28;20046;-81
2021/07/10 08:10:12;;;;;;;10.63;7.40;;;19.00;99.90;;;;;;5040079;28;20406;-82
2021/07/10 08:12:45;;;;;;;10.57;7.20;;;19.00;99.90;;;;;;5044780;28;20072;-83
2021/07/10 08:15:14;;;;;;;12.68;7.65;;;19.00;99.90;;;;;;5067368;28;20049;-82
2021/07/10 08:17:43;;;;;;;9.75;6.65;;;19.00;99.90;;;;;;5050873;28;20406;-83
2021/07/10 08:20:15;;;;;;;10.43;7.20;;;19.20;99.90;;;;;;5050971;28;20037;-81
2021/07/10 08:22:44;;;;;;;8.90;6.72;;;19.20;99.90;;;;;;5050466;28;20038;-81
2021/07/10 08:25:12;;;;;;;8.77;6.40;;;19.30;99.90;;;;;;5050575;28;20052;-82
2021/07/10 08:27:40;;;;;;;8.57;6.07;;;19.30;99.90;;;;;;5034235;28;20053;-82
2021/07/10 08:30:08;;;;;;;8.98;6.20;;;19.40;99.90;;;;;;5034271;28;20056;-81
2021/07/10 08:32:35;;;;;;;9.75;6.60;;;19.50;99.90;;;;;;5034070;28;20037;-82
2021/07/10 08:35:04;;;;;;;8.38;6.07;;;19.50;99.90;;;;;;5034171;28;20052;-81
2021/07/10 08:37:31;;;;;;;15.05;7.50;;;19.40;99.90;;;;;;5050243;28;20055;-83
2021/07/10 08:40:02;;;;;;;9.00;6.28;;;19.40;99.90;;;;;;5033838;28;20484;-82
2021/07/10 08:42:29;;;;;;;9.98;5.80;;;19.60;99.90;;;;;;5055168;28;20050;-82
2021/07/10 08:44:56;;;;;;;9.55;6.55;;;19.80;99.90;;;;;;5037392;28;20048;-83
2021/07/10 08:47:24;;;;;;;8.77;5.88;;;19.90;99.90;;;;;;5070305;28;20429;-82
2021/07/10 08:49:51;;;;;;;8.50;6.28;;;20.10;99.90;;;;;;5045722;28;20049;-82
2021/07/10 08:52:19;;;;;;;8.63;5.47;;;20.10;99.90;;;;;;5049886;28;20037;-83
2021/07/10 08:54:45;;;;;;;9.52;5.75;;;20.20;99.90;;;;;;5028493;28;20506;-82
2021/07/10 08:57:13;;;;;;;7.65;5.80;;;20.20;99.90;;;;;;5048901;28;20055;-83
2021/07/10 08:59:40;;;;;;;8.27;5.15;;;20.20;99.90;;;;;;5031947;28;20438;-82
2021/07/10 09:02:08;;;;;;;8.68;5.13;;;20.10;99.90;;;;;;5017130;28;20042;-82
2021/07/10 09:04:35;;;;;;;7.03;4.78;;;20.10;99.90;;;;;;5049303;28;20076;-82
2021/07/10 09:07:02;;;;;;;8.52;5.05;;;20.10;99.90;;;;;;5067253;28;20049;-83
2021/07/10 09:09:44;;;;;;;7.57;5.53;;;20.00;99.90;;;;;;5033067;28;20405;-82
2021/07/10 09:12:13;;;;;;;7.43;5.07;;;20.00;99.90;;;;;;5049704;28;20049;-82
2021/07/10 09:14:41;;;;;;;8.85;5.30;;;20.00;99.90;;;;;;5049183;28;20049;-83
2021/07/10 09:17:20;;;;;;;8.65;5.40;;;20.00;99.90;;;;;;5049694;28;20045;-83
2021/07/10 09:19:49;;;;;;;8.13;5.60;;;20.00;99.90;;;;;;5052821;28;20120;-82
2021/07/10 09:22:27;;;;;;;9.52;6.03;;;20.00;99.90;;;;;;5054003;28;20136;-82
2021/07/10 09:24:59;;;;;;;9.32;5.68;;;20.00;99.90;;;;;;5053583;28;20049;-80
2021/07/10 09:27:26;;;;;;;6.82;5.32;;;20.00;99.90;;;;;;5052650;28;20474;-81
2021/07/10 09:29:53;;;;;;;8.10;5.47;;;20.00;99.90;;;;;;5037702;28;20065;-83
2021/07/10 09:32:25;;;;;;;9.05;6.40;;;19.90;99.90;;;;;;5037647;28;20095;-79
2021/07/10 09:34:55;;;;;;;9.45;6.30;;;19.80;99.90;;;;;;5036555;28;20444;-80
2021/07/10 09:37:29;;;;;;;8.20;5.88;;;19.70;99.90;;;;;;5069738;28;20061;-82
2021/07/10 09:40:01;;;;;;;8.65;5.78;;;19.70;99.90;;;;;;5071457;28;20057;-82
2021/07/10 09:42:34;;;;;;;9.02;5.85;;;19.60;99.90;;;;;;5070296;28;20045;-81
2021/07/10 09:45:03;;;;;;;8.15;5.97;;;19.60;99.90;;;;;;5071201;28;20117;-82
2021/07/10 09:47:32;;;;;;;9.73;6.15;;;19.50;99.90;;;;;;5070317;28;20123;-82
2021/07/10 09:50:06;;;;;;;8.18;5.63;;;19.50;99.90;;;;;;5053847;28;20052;-82
2021/07/10 09:52:35;;;;;;;9.57;6.15;;;19.40;99.90;;;;;;5052320;28;21856;-81
2021/07/10 09:55:10;;;;;;;10.57;6.05;;;19.30;99.90;;;;;;5036912;28;20453;-82
2021/07/10 09:57:39;;;;;;;9.68;6.45;;;19.30;99.90;;;;;;5036377;28;20536;-83
2021/07/10 10:00:11;;;;;;;11.40;6.18;;;19.40;99.90;;;;;;5055125;28;20046;-81
2021/07/10 10:02:43;;;;;;;8.45;6.15;;;19.50;99.90;;;;;;5052904;28;20049;-81
2021/07/10 10:05:13;;;;;;;8.45;6.10;;;19.50;99.90;;;;;;5068349;28;20049;-82
2021/07/10 10:07:50;;;;;;;8.80;6.55;;;19.60;99.90;;;;;;5070382;28;20053;-82
2021/07/10 10:10:23;;;;;;;7.97;6.03;;;19.70;99.90;;;;;;5061377;28;20051;-80
2021/07/10 10:13:07;;;;;;;7.97;5.60;;;19.90;99.90;;;;;;5052793;28;20465;-81
2021/07/10 10:15:41;;;;;;;8.50;5.90;;;19.90;99.90;;;;;;5069484;28;20042;-86
2021/07/10 10:18:14;;;;;;;7.95;5.50;;;20.10;99.90;;;;;;5064501;28;20056;-83
2021/07/10 10:20:42;;;;;;;7.85;6.07;;;20.20;99.90;;;;;;5075612;28;20050;-78
2021/07/10 10:23:10;;;;;;;8.32;5.82;;;20.40;99.90;;;;;;5059008;28;20064;-78
2021/07/10 10:25:37;;;;;;;8.13;6.00;;;20.60;99.90;;;;;;5063553;28;20103;-81
2021/07/10 10:28:06;;;;;;;11.90;6.53;;;20.70;99.90;;;;;;5072249;28;20485;-78
2021/07/10 10:30:33;;;;;;;8.10;5.57;;;20.60;99.90;;;;;;5068321;28;20379;-80
2021/07/10 10:33:01;;;;;;;9.82;6.40;;;20.60;99.90;;;;;;5052468;28;20064;-79
2021/07/10 10:35:28;;;;;;;8.63;5.85;;;20.60;99.90;;;;;;5069178;28;20052;-80
2021/07/10 10:37:57;;;;;;;7.57;5.60;;;20.60;99.90;;;;;;5052233;28;20049;-81
2021/07/10 10:40:26;;;;;;;9.35;6.05;;;20.70;99.90;;;;;;5059877;28;20050;-80
2021/07/10 10:42:58;;;;;;;7.82;6.03;;;20.70;99.90;;;;;;5035742;28;20080;-81
2021/07/10 10:45:30;;;;;;;8.25;6.18;;;20.70;99.90;;;;;;5048754;28;20057;-79
2021/07/10 10:47:57;;;;;;;7.55;5.20;;;20.70;99.90;;;;;;5032182;28;20050;-80
2021/07/10 10:50:27;;;;;;;10.80;6.10;;;20.80;99.90;;;;;;5061416;28;20445;-80
2021/07/10 10:52:57;;;;;;;7.38;5.45;;;20.80;99.90;;;;;;5051971;28;20056;-80
2021/07/10 10:55:30;;;;;;;8.23;5.30;;;20.70;99.90;;;;;;5035854;28;20041;-80
2021/07/10 10:58:01;;;;;;;6.68;4.70;;;20.90;99.90;;;;;;5069488;28;20103;-82
2021/07/10 11:00:34;;;;;;;8.98;5.95;;;20.80;99.90;;;;;;5069246;28;20445;-79
2021/07/10 11:03:03;;;;;;;9.43;5.97;;;20.80;99.90;;;;;;5069450;28;20068;-78
2021/07/10 11:05:33;;;;;;;8.15;5.88;;;20.90;99.90;;;;;;5068332;28;20132;-82
2021/07/10 11:08:29;;;;;;;8.98;5.95;;;20.80;99.90;;;;;;5069743;28;20100;-85
2021/07/10 11:10:58;;;;;;;;;;;20.80;99.90;;;;;;5069126;28;20044;-81
2021/07/10 11:13:30;;;;;;;6.95;5.15;;;20.70;99.90;;;;;;5051318;28;20346;-80
2021/07/10 11:16:11;;;;;;;435.13;53.10;;;20.90;99.90;;;;;;5051184;28;20045;-80
2021/07/10 11:18:56;;;;;;;35.40;8.63;;;20.90;99.90;;;;;;5068878;28;20045;-80
2021/07/10 11:21:34;;;;;;;38.75;9.15;;;20.90;99.90;;;;;;5057310;28;20116;-79
2021/07/10 11:26:54;;;;;;;272.60;27.30;;;21.10;99.90;;;;;;5061370;28;20045;-80
2021/07/10 11:29:41;;;;;;;172.13;18.55;;;21.00;99.90;;;;;;5051156;28;20057;-80
2021/07/10 11:32:11;;;;;;;54.85;8.85;;;21.10;99.90;;;;;;5033475;28;20593;-80
2021/07/10 11:34:57;;;;;;;28.83;7.75;;;21.30;99.90;;;;;;5068729;28;20038;-81
2021/07/10 11:37:26;;;;;;;112.38;14.43;;;21.40;99.90;;;;;;5028360;28;20413;-80
2021/07/10 11:39:53;;;;;;;110.20;16.00;;;21.50;99.90;;;;;;5068366;28;20076;-81
2021/07/10 11:42:23;;;;;;;50.30;8.95;;;21.70;99.90;;;;;;5050420;28;20096;-80
2021/07/10 11:44:54;;;;;;;172.88;20.33;;;21.90;99.90;;;;;;5050872;28;20041;-80
2021/07/10 11:47:30;;;;;;;16.60;6.03;;;22.00;99.90;;;;;;5051262;28;20052;-81
2021/07/10 11:50:00;;;;;;;88.93;12.52;;;22.20;99.90;;;;;;5068185;28;20501;-81
2021/07/10 11:52:27;;;;;;;51.40;8.95;;;22.20;99.90;;;;;;5051322;28;20049;-81
2021/07/10 11:54:56;;;;;;;76.43;12.65;;;22.30;99.90;;;;;;5067065;28;20486;-81
2021/07/10 11:57:26;;;;;;;32.70;8.45;;;22.30;99.90;;;;;;5084265;28;20068;-81
2021/07/10 11:59:54;;;;;;;15.98;6.22;;;22.20;99.90;;;;;;5058607;28;20486;-81
2021/07/10 12:02:24;;;;;;;8.55;5.68;;;22.20;99.90;;;;;;5047742;28;20056;-81
2021/07/10 12:05:09;;;;;;;9.18;5.25;;;22.10;99.90;;;;;;5067110;28;20056;-81
2021/07/10 12:07:50;;;;;;;9.10;5.63;;;22.00;99.90;;;;;;5050853;28;20418;-81
2021/07/10 12:10:21;;;;;;;10.07;5.63;;;21.80;99.90;;;;;;5068320;28;20038;-81
2021/07/10 12:12:57;;;;;;;9.88;5.35;;;21.80;99.90;;;;;;5050270;28;20107;-80
2021/07/10 12:15:26;;;;;;;7.22;4.75;;;21.70;99.90;;;;;;5040361;28;20072;-81
2021/07/10 12:17:55;;;;;;;6.65;4.80;;;21.70;99.90;;;;;;5050207;28;20205;-81
2021/07/10 12:20:34;;;;;;;6.22;4.82;;;21.90;99.90;;;;;;5068088;28;20121;-81
2021/07/10 12:23:14;;;;;;;6.97;4.75;;;22.10;99.90;;;;;;5050280;28;20125;-81
2021/07/10 12:25:49;;;;;;;7.90;5.50;;;22.30;99.90;;;;;;5050406;28;20077;-81
2021/07/10 12:28:17;;;;;;;;;;;22.40;99.90;;;;;;5050328;28;20430;-78
2021/07/10 12:30:46;;;;;;;7.50;4.97;;;22.40;99.90;;;;;;5067440;28;19948;-79
2021/07/10 12:33:30;;;;;;;22.02;6.65;;;22.30;99.90;;;;;;5049920;28;20482;-77
2021/07/10 12:36:16;;;;;;;7.15;5.00;;;22.20;99.90;;;;;;5067133;28;20561;-77
2021/07/10 12:38:57;;;;;;;85.07;11.18;;;22.10;99.90;;;;;;5067329;28;20419;-77
2021/07/10 12:41:28;;;;;;;7.60;5.05;;;22.10;99.90;;;;;;5067627;28;20065;-77
2021/07/10 12:44:15;;;;;;;8.23;4.60;;;22.10;99.90;;;;;;5066755;28;20397;-77